Time;durP1;ratioP1;P1;durP2;ratioP2;P2;SDS_P1;SDS_P2;PMS_P1;PMS_P2;Temp;Humidity;BMP_temperature;BMP_pressure;BME280_temperature;BME280_humidity;BME280_pressure;Samples;Min_cycle;Max_cycle;Signal;HPM_P1;HPM_P2
2022/04/25 00:00:34;;;;;;;3.40;3.20;;;;;;;15.70;94.68;98729.28;5112060;28;20199;-66
2022/04/25 00:03:01;;;;;;;5.10;2.87;;;;;;;15.79;94.55;98739.97;5111909;28;20234;-66
2022/04/25 00:05:28;;;;;;;7.30;3.17;;;;;;;15.83;94.61;98746.63;5112106;28;20650;-66
2022/04/25 00:07:55;;;;;;;4.23;2.77;;;;;;;15.85;94.28;98740.44;5107068;28;20290;-66
2022/04/25 00:10:22;;;;;;;6.27;3.27;;;;;;;15.88;94.06;98750.56;5110964;28;20272;-67
2022/04/25 00:12:49;;;;;;;3.77;3.23;;;;;;;15.92;93.59;98751.22;5111768;28;20743;-66
2022/04/25 00:15:16;;;;;;;7.90;3.30;;;;;;;15.99;93.06;98747.34;5111343;28;20209;-67
2022/04/25 00:17:44;;;;;;;9.67;3.10;;;;;;;15.95;92.72;98741.53;5111049;28;20195;-66
2022/04/25 00:20:13;;;;;;;9.50;2.70;;;;;;;16.10;92.75;98750.06;5111777;28;20287;-66
2022/04/25 00:22:40;;;;;;;2.70;2.50;;;;;;;16.11;92.31;98746.56;5111469;28;20201;-66
2022/04/25 00:25:08;;;;;;;3.77;2.77;;;;;;;16.14;91.76;98741.19;5111374;28;20290;-67
2022/04/25 00:27:35;;;;;;;3.67;3.03;;;;;;;15.98;92.54;98733.56;5110436;28;20293;-66
2022/04/25 00:30:01;;;;;;;2.83;2.63;;;;;;;15.97;92.75;98738.81;5111320;28;20202;-66
2022/04/25 00:32:28;;;;;;;8.23;3.20;;;;;;;15.94;92.73;98739.03;5111367;28;20688;-66
2022/04/25 00:34:57;;;;;;;3.70;2.77;;;;;;;15.89;93.10;98741.91;5111374;28;20741;-66
2022/04/25 00:37:24;;;;;;;3.23;2.70;;;;;;;15.83;93.82;98744.03;5110327;28;20266;-66
2022/04/25 00:39:50;;;;;;;3.40;2.90;;;;;;;15.74;93.64;98720.41;5106752;28;20254;-67
2022/04/25 00:42:17;;;;;;;4.33;2.47;;;;;;;15.87;93.40;98742.91;5110435;28;20196;-66
2022/04/25 00:44:45;;;;;;;5.43;3.30;;;;;;;15.87;93.37;98748.06;5109471;28;20277;-66
2022/04/25 00:47:12;;;;;;;4.17;2.80;;;;;;;15.65;94.61;98752.00;5110490;28;20247;-66
2022/04/25 00:49:39;;;;;;;5.77;2.97;;;;;;;15.64;94.65;98741.72;5111284;28;20285;-66
2022/04/25 00:52:07;;;;;;;5.37;2.73;;;;;;;15.68;94.27;98744.06;5109331;28;20224;-67
2022/04/25 00:54:35;;;;;;;4.70;2.80;;;;;;;15.73;93.95;98749.75;5111045;28;20218;-66
2022/04/25 00:57:03;;;;;;;9.00;3.53;;;;;;;15.77;93.70;98751.22;5110422;28;20217;-66
2022/04/25 00:59:30;;;;;;;6.40;2.60;;;;;;;15.75;93.54;98742.75;5110958;28;20201;-66
2022/04/25 01:01:57;;;;;;;3.03;2.83;;;;;;;15.82;93.66;98753.53;5110561;28;20284;-66
2022/04/25 01:04:24;;;;;;;5.97;3.73;;;;;;;15.84;93.04;98748.28;5110568;28;20294;-66
2022/04/25 01:06:51;;;;;;;11.07;3.40;;;;;;;15.77;93.26;98749.59;5109561;28;20199;-66
2022/04/25 01:09:19;;;;;;;5.10;3.00;;;;;;;15.69;93.62;98750.88;5111100;28;20809;-66
2022/04/25 01:11:46;;;;;;;4.80;3.13;;;;;;;15.67;94.00;98757.88;5108687;28;20211;-66
2022/04/25 01:14:16;;;;;;;7.13;3.00;;;;;;;15.68;93.68;98753.56;5110991;28;20226;-66
2022/04/25 01:16:43;;;;;;;3.70;2.93;;;;;;;15.69;93.65;98755.22;5110396;28;20671;-66
2022/04/25 01:19:11;;;;;;;3.27;2.90;;;;;;;15.69;93.65;98758.63;5110611;28;20273;-66
2022/04/25 01:21:43;;;;;;;4.20;4.00;;;;;;;15.60;93.40;98742.88;5109464;28;20714;-66
2022/04/25 01:29:41;;;;;;;7.43;3.43;;;;;;;15.66;93.62;98769.16;5109117;28;20202;-66
2022/04/25 01:32:08;;;;;;;3.37;3.07;;;;;;;15.63;93.45;98764.19;5110660;28;20214;-66
2022/04/25 01:34:37;;;;;;;4.13;3.70;;;;;;;15.54;93.40;98772.47;5109931;28;20194;-66
2022/04/25 01:37:08;;;;;;;4.80;3.90;;;;;;;15.47;93.74;98766.00;5108471;28;20670;-66
2022/04/25 01:39:37;;;;;;;3.93;3.60;;;;;;;15.44;93.72;98770.53;5109366;28;20195;-66
2022/04/25 01:42:06;;;;;;;6.77;3.30;;;;;;;15.42;93.59;98762.00;5111102;28;20714;-66
2022/04/25 01:44:33;;;;;;;4.40;3.47;;;;;;;15.41;93.79;98758.59;5109197;28;20286;-66
2022/04/25 01:47:00;;;;;;;4.60;3.00;;;;;;;15.40;93.38;98758.69;5108652;28;20286;-66
2022/04/25 01:49:27;;;;;;;9.80;3.30;;;;;;;15.37;93.65;98748.56;5108459;28;20673;-66
2022/04/25 01:51:54;;;;;;;6.23;3.47;;;;;;;15.40;93.52;98754.38;5109056;28;20707;-66
2022/04/25 01:54:26;;;;;;;7.53;3.43;;;;;;;15.37;93.86;98749.38;5112521;28;20198;-66
2022/04/25 01:56:55;;;;;;;3.97;3.73;;;;;;;15.33;94.15;98747.06;5111097;28;20202;-66
2022/04/25 01:59:23;;;;;;;3.67;3.37;;;;;;;15.31;94.46;98734.25;5113091;28;20221;-66
2022/04/25 02:01:51;;;;;;;7.10;3.40;;;;;;;15.22;94.75;98729.63;5114140;28;20191;-66
2022/04/25 02:04:18;;;;;;;12.57;3.43;;;;;;;15.21;95.24;98743.47;5114397;28;20282;-66
2022/04/25 02:06:45;;;;;;;3.33;3.13;;;;;;;15.03;95.31;98714.41;5113764;28;20207;-66
2022/04/25 02:09:12;;;;;;;8.03;3.40;;;;;;;15.13;95.50;98735.34;5111369;28;20298;-66
2022/04/25 02:11:39;;;;;;;6.23;3.70;;;;;;;15.13;95.73;98745.66;5112964;28;20301;-66
2022/04/25 02:14:07;;;;;;;6.10;3.20;;;;;;;15.10;95.98;98735.53;5113958;28;20685;-66
2022/04/25 02:16:34;;;;;;;5.97;3.83;;;;;;;15.01;96.24;98739.50;5109956;28;20277;-66
2022/04/25 02:19:01;;;;;;;8.03;3.33;;;;;;;15.00;96.27;98736.97;5112360;28;20285;-66
2022/04/25 02:21:28;;;;;;;6.13;2.93;;;;;;;14.96;96.06;98748.44;5113780;28;20190;-66
2022/04/25 02:23:56;;;;;;;5.90;3.17;;;;;;;14.86;96.32;98734.38;5113816;28;20293;-66
2022/04/25 02:26:23;;;;;;;9.30;3.37;;;;;;;14.85;96.44;98743.03;5114081;28;20738;-66
2022/04/25 02:28:50;;;;;;;3.73;3.10;;;;;;;14.85;96.87;98750.78;5113730;28;20195;-66
2022/04/25 02:31:18;;;;;;;3.50;3.30;;;;;;;14.84;96.70;98743.94;5112672;28;20590;-66
2022/04/25 02:33:45;;;;;;;4.73;4.27;;;;;;;14.84;96.89;98738.78;5109997;28;20289;-66
2022/04/25 02:36:12;;;;;;;9.27;3.87;;;;;;;14.84;97.01;98736.22;5113596;28;20203;-66
2022/04/25 02:38:40;;;;;;;4.60;2.97;;;;;;;14.84;97.00;98733.63;5113623;28;20206;-66
2022/04/25 02:41:09;;;;;;;3.50;2.60;;;;;;;14.75;96.26;98723.84;5112513;28;20598;-67
2022/04/25 02:43:37;;;;;;;3.53;3.33;;;;;;;14.80;96.84;98737.34;5113458;28;20198;-66
2022/04/25 02:46:07;;;;;;;4.20;3.90;;;;;;;14.77;97.00;98737.47;5113357;28;20206;-66
2022/04/25 02:48:36;;;;;;;2.87;2.77;;;;;;;14.75;97.00;98737.59;5111861;28;20198;-66
2022/04/25 02:51:04;;;;;;;3.97;3.00;;;;;;;14.75;96.99;98739.31;5107172;28;20218;-66
2022/04/25 02:53:31;;;;;;;3.73;3.43;;;;;;;14.59;97.10;98724.75;5113387;28;20205;-66
2022/04/25 02:55:59;;;;;;;5.13;3.97;;;;;;;14.65;97.11;98745.03;5113436;28;20674;-66
2022/04/25 02:58:26;;;;;;;3.80;3.50;;;;;;;14.56;97.16;98744.72;5113223;28;20206;-66
2022/04/25 03:00:55;;;;;;;4.40;3.20;;;;;;;14.56;97.52;98747.28;5112253;28;20730;-66
2022/04/25 03:03:24;;;;;;;10.53;4.13;;;;;;;14.53;97.57;98739.72;5107387;28;20253;-66
2022/04/25 03:05:54;;;;;;;4.50;3.40;;;;;;;14.52;97.34;98744.06;5112645;28;20191;-66
2022/04/25 03:08:23;;;;;;;4.30;3.90;;;;;;;14.51;97.07;98752.69;5112714;28;20685;-66
2022/04/25 03:10:52;;;;;;;3.80;3.37;;;;;;;14.48;97.10;98745.13;5112140;28;20281;-66
2022/04/25 03:13:20;;;;;;;4.53;3.90;;;;;;;14.47;97.13;98747.81;5112529;28;20194;-66
2022/04/25 03:15:48;;;;;;;3.83;3.53;;;;;;;14.39;97.31;98745.66;5112712;28;20681;-66
2022/04/25 03:18:19;;;;;;;5.37;4.47;;;;;;;14.37;97.74;98744.91;5113104;28;20191;-66
2022/04/25 03:20:48;;;;;;;4.07;3.83;;;;;;;14.34;97.97;98752.00;5112120;28;20582;-66
2022/04/25 03:23:17;;;;;;;8.13;4.43;;;;;;;14.31;98.11;98750.41;5112989;28;20220;-66
2022/04/25 03:25:44;;;;;;;6.70;4.73;;;;;;;14.26;98.32;98734.34;5112211;28;20281;-66
2022/04/25 03:28:11;;;;;;;14.57;4.50;;;;;;;14.24;98.29;98743.91;5112772;28;20201;-66
2022/04/25 03:30:39;;;;;;;5.90;4.47;;;;;;;14.23;99.03;98749.97;5110706;28;20209;-66
2022/04/25 03:33:06;;;;;;;4.97;4.27;;;;;;;14.23;99.23;98747.38;5112653;28;20607;-66
2022/04/25 03:35:33;;;;;;;10.50;4.80;;;;;;;14.23;99.13;98742.25;5111760;28;20226;-66
2022/04/25 03:38:01;;;;;;;6.67;5.27;;;;;;;14.17;99.48;98740.00;5111482;28;20264;-66
2022/04/25 03:40:29;;;;;;;6.77;4.50;;;;;;;14.13;99.68;98738.50;5110217;28;20214;-66
2022/04/25 03:42:56;;;;;;;6.73;4.83;;;;;;;14.19;99.92;98738.16;5111294;28;20237;-66
2022/04/25 03:45:23;;;;;;;11.73;4.73;;;;;;;14.17;100.00;98745.16;5111664;28;20198;-66
2022/04/25 03:47:50;;;;;;;8.63;4.87;;;;;;;14.16;99.60;98735.75;5111637;28;20663;-66
2022/04/25 03:50:18;;;;;;;4.90;4.50;;;;;;;14.16;99.92;98740.91;5112263;28;20735;-66
2022/04/25 03:52:46;;;;;;;7.80;4.10;;;;;;;14.14;99.85;98738.44;5112140;28;20582;-66
2022/04/25 03:58:01;;;;;;;5.60;4.93;;;;;;;14.11;100.00;98743.75;5110370;28;20205;-66
2022/04/25 04:00:28;;;;;;;6.60;4.70;;;;;;;14.13;100.00;98751.38;5110566;28;20286;-66
2022/04/25 04:02:57;;;;;;;10.30;4.07;;;;;;;14.13;100.00;98741.06;5109390;28;20230;-66
2022/04/25 04:05:24;;;;;;;7.97;4.47;;;;;;;14.13;100.00;98741.06;5108357;28;20323;-66
2022/04/25 04:07:51;;;;;;;9.83;4.53;;;;;;;14.19;100.00;98745.88;5109747;28;20195;-66
2022/04/25 04:10:19;;;;;;;9.27;4.63;;;;;;;14.20;100.00;98742.41;5109518;28;20247;-66
2022/04/25 04:12:47;;;;;;;10.43;4.97;;;;;;;14.23;99.33;98747.38;5109624;28;20222;-66
2022/04/25 04:15:17;;;;;;;8.27;4.40;;;;;;;14.23;99.32;98729.34;5109296;28;20205;-66
2022/04/25 04:17:44;;;;;;;8.10;4.87;;;;;;;14.22;99.38;98713.97;5111805;28;20305;-66
2022/04/25 04:20:12;;;;;;;6.27;4.70;;;;;;;14.19;99.37;98710.63;5111366;28;20202;-66
2022/04/25 04:22:40;;;;;;;6.13;5.33;;;;;;;13.98;100.00;98711.00;5111578;28;20195;-66
2022/04/25 04:25:10;;;;;;;23.40;7.53;;;;;;;13.75;100.00;98703.69;5110612;28;20207;-66
2022/04/25 04:27:37;;;;;;;5.63;5.13;;;;;;;13.58;100.00;98692.53;5111663;28;20660;-66
2022/04/25 04:30:07;;;;;;;9.37;5.57;;;;;;;13.39;100.00;98698.75;5111315;28;20202;-66
2022/04/25 04:32:38;;;;;;;10.03;6.40;;;;;;;13.38;100.00;98689.34;5111063;28;20210;-66
2022/04/25 04:35:09;;;;;;;7.97;6.40;;;;;;;13.40;100.00;98685.81;5110563;28;20244;-66
2022/04/25 04:37:36;;;;;;;13.00;5.90;;;;;;;13.19;100.00;98692.06;5110692;28;20195;-66
2022/04/25 04:42:49;;;;;;;8.67;5.10;;;;;;;13.48;100.00;98709.41;5111341;28;20224;-66
2022/04/25 04:45:16;;;;;;;7.03;5.17;;;;;;;13.68;100.00;98693.72;5109849;28;20194;-66
2022/04/25 04:47:44;;;;;;;4.93;4.63;;;;;;;13.90;100.00;98695.13;5109436;28;20217;-66
2022/04/25 04:50:15;;;;;;;5.23;4.63;;;;;;;14.03;100.00;98703.84;5110266;28;20195;-66
2022/04/25 04:52:44;;;;;;;5.67;5.17;;;;;;;14.12;100.00;98685.28;5110944;28;20211;-66
2022/04/25 04:55:11;;;;;;;8.07;5.50;;;;;;;14.33;100.00;98686.69;5111304;28;20759;-66
2022/04/25 04:57:38;;;;;;;5.30;4.80;;;;;;;14.46;100.00;98692.81;5110784;28;20635;-66
2022/04/25 05:00:07;;;;;;;10.90;4.67;;;;;;;14.58;100.00;98697.28;5110358;28;20300;-66
2022/04/25 05:02:35;;;;;;;6.33;4.50;;;;;;;14.69;100.00;98694.09;5110596;28;20197;-66
2022/04/25 05:05:05;;;;;;;8.70;4.93;;;;;;;14.92;100.00;98706.47;5110849;28;20234;-66
2022/04/25 05:07:32;;;;;;;7.17;4.90;;;;;;;15.11;100.00;98716.53;5110651;28;20201;-66
2022/04/25 05:09:59;;;;;;;6.50;4.27;;;;;;;15.27;100.00;98732.78;5109485;28;20281;-66
2022/04/25 05:12:27;;;;;;;14.00;5.93;;;;;;;15.44;100.00;98734.34;5110895;28;20301;-66
2022/04/25 05:14:55;;;;;;;11.50;5.20;;;;;;;15.55;100.00;98729.38;5110734;28;20194;-66
2022/04/25 05:17:22;;;;;;;5.37;4.97;;;;;;;15.65;100.00;98735.66;5110593;28;20201;-66
2022/04/25 05:19:49;;;;;;;6.93;5.43;;;;;;;15.67;100.00;98713.97;5109745;28;20197;-66
2022/04/25 05:22:18;;;;;;;6.57;5.97;;;;;;;15.83;100.00;98751.78;5110621;28;20285;-66
2022/04/25 05:24:45;;;;;;;8.20;6.37;;;;;;;15.91;100.00;98765.06;5110547;28;20278;-66
2022/04/25 05:27:12;;;;;;;8.13;5.57;;;;;;;16.08;100.00;98772.59;5111756;28;20197;-66
2022/04/25 05:29:39;;;;;;;6.73;5.57;;;;;;;16.25;100.00;98780.16;5114128;28;20570;-67
2022/04/25 05:32:07;;;;;;;10.90;6.37;;;;;;;16.48;99.96;98787.25;5113216;28;20302;-67
2022/04/25 05:34:34;;;;;;;7.57;6.27;;;;;;;16.63;99.28;98801.84;5114465;28;20202;-66
2022/04/25 05:37:01;;;;;;;9.33;5.87;;;;;;;16.79;99.22;98807.72;5114301;28;20273;-66
2022/04/25 05:39:30;;;;;;;8.73;5.73;;;;;;;17.00;99.98;98807.22;5114418;28;20200;-67
2022/04/25 05:41:57;;;;;;;7.80;5.63;;;;;;;17.12;99.22;98803.84;5113982;28;20191;-66
2022/04/25 05:44:24;;;;;;;7.47;6.90;;;;;;;17.29;98.00;98801.78;5114258;28;20289;-67
2022/04/25 05:46:51;;;;;;;12.80;5.87;;;;;;;17.53;95.47;98808.84;5112653;27;20191;-67
2022/04/25 05:52:05;;;;;;;9.60;6.33;;;;;;;17.77;93.76;98800.22;5112497;28;20232;-66
2022/04/25 05:54:34;;;;;;;14.87;6.20;;;;;;;17.98;92.97;98810.91;5113533;27;20198;-67
2022/04/25 05:57:01;;;;;;;7.63;6.87;;;;;;;18.16;91.26;98817.38;5113984;28;20194;-67
2022/04/25 05:59:29;;;;;;;11.07;6.50;;;;;;;18.33;88.40;98806.66;5112215;28;20814;-66
2022/04/25 06:01:57;;;;;;;11.60;6.30;;;;;;;18.50;87.80;98808.06;5111841;28;20191;-67
2022/04/25 06:04:24;;;;;;;12.90;5.63;;;;;;;18.63;87.79;98811.44;5113682;28;20191;-67
2022/04/25 06:06:50;;;;;;;11.03;6.17;;;;;;;18.76;86.95;98798.41;5113911;28;20251;-67
2022/04/25 06:09:19;;;;;;;8.90;6.37;;;;;;;18.81;90.46;98801.47;5112699;28;20195;-67
2022/04/25 06:11:49;;;;;;;7.77;6.97;;;;;;;18.84;88.64;98798.66;5107483;28;20194;-66
2022/04/25 06:14:16;;;;;;;9.43;6.33;;;;;;;18.72;88.69;98802.97;5110323;28;20203;-67
2022/04/25 06:16:43;;;;;;;9.93;5.93;;;;;;;18.62;89.57;98807.19;5111054;28;20194;-67
2022/04/25 06:19:10;;;;;;;11.47;6.00;;;;;;;18.73;89.00;98791.66;5112398;28;20302;-67
2022/04/25 06:21:37;;;;;;;8.50;5.27;;;;;;;18.82;87.93;98788.41;5109668;28;20207;-67
2022/04/25 06:24:04;;;;;;;9.37;5.00;;;;;;;18.99;87.44;98783.72;5113016;27;20663;-67
2022/04/25 06:26:33;;;;;;;6.17;5.13;;;;;;;19.07;85.90;98786.56;5110133;28;20281;-67
2022/04/25 06:29:03;;;;;;;7.43;5.80;;;;;;;19.04;87.73;98789.41;5108024;28;20214;-67
2022/04/25 06:31:30;;;;;;;9.77;5.40;;;;;;;19.18;87.44;98804.78;5111932;28;20205;-67
2022/04/25 06:33:58;;;;;;;8.33;6.10;;;;;;;19.36;86.76;98793.00;5109257;28;20227;-67
2022/04/25 06:36:25;;;;;;;6.67;5.17;;;;;;;19.46;84.91;98799.19;5109843;28;20207;-67
2022/04/25 06:38:52;;;;;;;7.83;6.37;;;;;;;19.61;84.94;98798.03;5105273;28;20213;-67
2022/04/25 06:41:21;;;;;;;12.00;5.50;;;;;;;19.76;82.48;98806.44;5110737;28;20254;-67
2022/04/25 06:43:48;;;;;;;8.10;4.77;;;;;;;19.90;82.80;98794.00;5111560;28;20209;-67
2022/04/25 06:46:16;;;;;;;7.10;5.43;;;;;;;20.04;81.92;98785.13;5112262;28;20289;-67
2022/04/25 06:49:19;;;;;;;18.20;5.07;;;;;;;20.11;82.09;98790.69;5111735;28;20276;-67
2022/04/25 06:51:31;;;;;;;7.20;4.53;;;;;;;20.25;82.46;98798.25;5102889;28;20199;-67
2022/04/25 06:54:00;;;;;;;6.73;4.83;;;;;;;20.36;81.78;98795.63;5110669;28;20219;-66
2022/04/25 06:56:27;;;;;;;8.63;4.93;;;;;;;20.65;80.19;98801.94;5110754;28;20582;-67
2022/04/25 06:58:54;;;;;;;4.90;4.43;;;;;;;20.85;78.43;98793.34;5112327;28;20204;-67
2022/04/25 07:01:22;;;;;;;6.10;4.57;;;;;;;20.97;75.84;98793.28;5111117;28;20230;-66
2022/04/25 07:03:49;;;;;;;8.10;4.80;;;;;;;21.07;76.94;98786.34;5111433;28;20452;-67
2022/04/25 07:06:16;;;;;;;5.47;4.97;;;;;;;21.25;77.89;98784.88;5111934;28;20195;-67
2022/04/25 07:08:43;;;;;;;5.57;5.17;;;;;;;21.39;77.21;98781.91;5109364;27;20579;-67
2022/04/25 07:11:10;;;;;;;7.77;4.80;;;;;;;21.60;75.91;98790.53;5111202;28;20203;-66
2022/04/25 07:13:41;;;;;;;5.30;4.93;;;;;;;21.70;73.45;98796.63;5110868;28;20314;-68
2022/04/25 07:16:09;;;;;;;4.87;4.57;;;;;;;21.65;72.90;98790.97;5104186;28;20204;-66
2022/04/25 07:18:37;;;;;;;6.27;4.60;;;;;;;21.73;73.21;98782.50;5104966;28;20209;-66
2022/04/25 07:28:48;;;;;;;4.73;4.13;;;;;;;21.68;73.46;98784.69;5109367;28;20753;-68
2022/04/25 07:29:22;;;;;;;9.43;4.80;;;;;;;22.23;73.05;98778.97;5112222;28;20231;-66
2022/04/25 07:31:50;;;;;;;9.13;4.43;;;;;;;22.42;71.29;98772.97;5109413;28;20627;-66
2022/04/25 07:34:19;;;;;;;6.70;4.27;;;;;;;22.56;70.30;98758.66;5110716;28;20707;-66
2022/04/25 07:36:51;;;;;;;7.83;4.37;;;;;;;22.67;71.91;98769.84;5111149;28;20207;-66
2022/04/25 07:39:18;;;;;;;7.17;4.07;;;;;;;22.62;69.71;98773.81;5107528;28;20284;-66
2022/04/25 07:41:45;;;;;;;4.87;3.93;;;;;;;22.76;69.59;98765.56;5109351;28;20428;-66
2022/04/25 07:44:12;;;;;;;5.17;3.63;;;;;;;22.80;69.38;98765.16;5106821;28;20206;-66
2022/04/25 07:46:40;;;;;;;5.73;4.10;;;;;;;22.91;67.97;98759.78;5106634;28;20308;-74
2022/04/25 07:49:08;;;;;;;4.53;3.60;;;;;;;23.05;70.21;98766.38;5109639;28;20198;-74
2022/04/25 07:51:36;;;;;;;12.17;4.00;;;;;;;23.16;69.34;98762.78;5108087;28;20283;-74
2022/04/25 07:54:05;;;;;;;8.03;3.93;;;;;;;23.20;69.66;98762.34;5109646;28;20266;-74
2022/04/25 07:56:32;;;;;;;3.37;3.13;;;;;;;23.21;69.35;98758.78;5109420;28;20292;-75
2022/04/25 07:59:00;;;;;;;8.77;4.03;;;;;;;23.43;68.50;98760.25;5110739;28;20631;-67
2022/04/25 08:01:27;;;;;;;4.30;3.93;;;;;;;23.56;69.44;98750.28;5107323;28;20207;-68
2022/04/25 08:03:54;;;;;;;10.77;3.90;;;;;;;23.65;66.18;98748.63;5110050;28;20713;-67
2022/04/25 08:06:21;;;;;;;7.87;3.63;;;;;;;23.64;64.56;98739.94;5106422;28;20710;-67
2022/04/25 08:08:50;;;;;;;6.17;4.13;;;;;;;23.68;67.65;98736.09;5107088;28;20220;-67
2022/04/25 08:11:17;;;;;;;12.53;4.07;;;;;;;23.82;65.86;98746.03;5107119;28;20749;-67
2022/04/25 08:19:13;;;;;;;4.97;4.37;;;;;;;23.83;65.46;98712.84;5105630;27;20209;-67
2022/04/25 08:21:40;;;;;;;5.55;3.80;;;;;;;23.88;66.62;98724.53;5101378;28;20795;-63
2022/04/25 08:24:09;;;;;;;3.90;3.60;;;;;;;23.99;66.71;98720.88;5105336;28;20205;-64
2022/04/25 08:26:36;;;;;;;4.47;4.03;;;;;;;24.16;67.12;98716.69;5110741;28;20629;-63
2022/04/25 08:29:03;;;;;;;6.53;3.67;;;;;;;24.28;69.09;98710.25;5111453;28;20289;-64
2022/04/25 08:31:31;;;;;;;8.90;3.47;;;;;;;24.53;65.07;98707.69;5111250;28;20199;-64
2022/04/25 08:33:58;;;;;;;15.40;8.27;;;;;;;24.40;64.41;98699.38;5111276;28;20214;-64
2022/04/25 08:36:26;;;;;;;4.17;3.37;;;;;;;24.36;62.10;98713.75;5111613;28;20721;-64
2022/04/25 08:38:52;;;;;;;3.40;3.10;;;;;;;24.38;66.20;98690.03;5110979;28;20201;-64
2022/04/25 08:41:25;;;;;;;4.47;3.10;;;;;;;24.65;64.94;98713.53;5111178;28;20666;-64
2022/04/25 08:43:55;;;;;;;7.37;3.07;;;;;;;24.86;65.43;98716.69;5110977;28;20277;-63
2022/04/25 08:46:23;;;;;;;5.30;3.43;;;;;;;24.90;62.55;98720.63;5111200;28;20725;-64
2022/04/25 08:48:53;;;;;;;5.17;3.43;;;;;;;24.98;61.50;98720.69;5109883;28;20671;-64
2022/04/25 08:51:21;;;;;;;7.37;3.73;;;;;;;25.20;61.59;98721.16;5110755;28;20204;-64
2022/04/25 08:53:48;;;;;;;7.57;4.50;;;;;;;25.23;61.61;98715.59;5111451;28;20686;-64
2022/04/25 08:56:17;;;;;;;6.13;3.63;;;;;;;25.26;63.49;98710.06;5111648;28;20199;-64
2022/04/25 08:58:46;;;;;;;3.20;2.90;;;;;;;25.39;62.42;98707.81;5111251;28;20226;-64
2022/04/25 09:01:15;;;;;;;6.00;3.50;;;;;;;25.41;63.12;98697.97;5111252;28;20197;-64
2022/04/25 09:03:42;;;;;;;5.17;3.00;;;;;;;25.53;63.98;98694.94;5111028;28;20256;-64
2022/04/25 09:06:09;;;;;;;7.73;2.80;;;;;;;25.76;62.19;98686.50;5111382;28;20293;-64
2022/04/25 09:08:37;;;;;;;8.13;3.37;;;;;;;25.89;59.65;98679.81;5111150;28;20195;-64
2022/04/25 09:13:47;;;;;;;5.23;3.30;;;;;;;26.25;59.64;98674.31;5111000;28;20271;-64
2022/04/25 09:16:14;;;;;;;5.23;3.57;;;;;;;26.37;58.18;98673.00;5111654;28;20283;-64
2022/04/25 09:18:41;;;;;;;11.43;3.03;;;;;;;26.32;59.40;98670.91;5111684;28;20698;-65
2022/04/25 09:21:08;;;;;;;5.77;3.60;;;;;;;26.29;56.85;98675.66;5111507;28;20278;-64
2022/04/25 09:23:35;;;;;;;12.23;3.73;;;;;;;26.43;57.88;98677.66;5111304;28;20188;-64
2022/04/25 09:26:12;;;;;;;3.87;3.07;;;;;;;26.59;58.46;98677.66;5111430;28;20289;-65
2022/04/25 09:28:52;;;;;;;4.67;3.10;;;;;;;26.62;60.00;98672.06;5111525;28;20675;-64
2022/04/25 09:31:21;;;;;;;11.13;3.13;;;;;;;26.66;61.38;98662.81;5105326;28;20196;-64
2022/04/25 09:33:49;;;;;;;3.37;3.13;;;;;;;26.56;58.36;98672.69;5110834;28;20212;-64
2022/04/25 09:36:16;;;;;;;5.20;3.20;;;;;;;26.57;60.66;98663.81;5111257;28;20194;-64
2022/04/25 09:38:44;;;;;;;6.93;3.13;;;;;;;26.44;61.49;98647.72;5111367;28;20207;-64
2022/04/25 09:41:13;;;;;;;6.80;3.57;;;;;;;26.63;58.89;98660.53;5110972;28;20218;-64
2022/04/25 09:43:41;;;;;;;5.43;3.23;;;;;;;26.69;60.56;98651.19;5111195;28;20745;-64
2022/04/25 09:46:11;;;;;;;3.57;2.83;;;;;;;26.62;57.00;98648.38;5111228;28;20292;-64
2022/04/25 09:48:41;;;;;;;5.13;4.30;;;;;;;26.34;57.10;98636.56;5111205;28;20280;-64
2022/04/25 09:51:10;;;;;;;7.30;3.73;;;;;;;25.90;57.67;98628.94;5110735;28;20244;-64
2022/04/25 09:53:45;;;;;;;5.07;4.00;;;;;;;25.69;58.27;98641.69;5110945;28;20218;-64
2022/04/25 09:56:17;;;;;;;5.40;3.57;;;;;;;25.90;57.72;98639.44;5111255;28;20630;-64
2022/04/25 09:58:45;;;;;;;6.27;3.47;;;;;;;26.06;60.13;98628.97;5111039;28;20281;-64
2022/04/25 10:01:14;;;;;;;6.67;3.83;;;;;;;26.18;61.60;98632.13;5111021;28;20663;-64
2022/04/25 10:03:43;;;;;;;6.67;4.33;;;;;;;26.35;61.50;98635.56;5110958;28;20194;-64
2022/04/25 10:06:10;;;;;;;3.80;3.50;;;;;;;26.42;60.26;98634.75;5110979;28;20298;-63
2022/04/25 10:08:38;;;;;;;8.53;3.47;;;;;;;26.62;58.44;98630.00;5110775;28;20199;-67
2022/04/25 10:11:07;;;;;;;11.10;3.90;;;;;;;26.83;59.02;98632.09;5111054;28;20210;-64
2022/04/25 10:13:35;;;;;;;9.27;2.67;;;;;;;26.63;53.56;98629.81;5112509;28;20571;-64
2022/04/25 10:16:03;;;;;;;7.07;3.20;;;;;;;26.31;53.12;98629.00;5114474;28;20199;-64
2022/04/25 10:18:32;;;;;;;10.25;3.35;;;;;;;26.55;54.41;98629.00;5109478;28;20521;-66
2022/04/25 10:20:59;;;;;;;6.33;2.90;;;;;;;26.87;55.88;98618.47;5112775;27;20201;-70
2022/04/25 10:23:27;;;;;;;3.47;2.57;;;;;;;26.88;53.03;98620.09;5110647;28;20291;-70
2022/04/25 10:25:56;;;;;;;4.37;2.43;;;;;;;26.53;52.68;98626.53;5111423;28;20195;-70
2022/04/25 10:28:29;;;;;;;4.93;2.90;;;;;;;26.54;53.68;98622.09;5110175;28;20281;-70
2022/04/25 10:31:03;;;;;;;4.63;2.70;;;;;;;26.66;55.65;98604.97;5111632;28;20204;-70
2022/04/25 10:33:49;;;;;;;3.97;3.17;;;;;;;26.60;53.81;98622.25;5111839;28;20218;-70
2022/04/25 10:36:50;;;;;;;2.20;2.10;;;;;;;26.77;52.20;98616.97;5113032;28;20197;-70
2022/04/25 10:39:18;;;;;;;10.80;2.80;;;;;;;26.77;52.21;98602.00;5112271;28;20290;-70
2022/04/25 10:44:53;;;;;;;2.77;2.57;;;;;;;26.63;55.57;98605.31;5112472;28;20195;-70
2022/04/25 10:47:21;;;;;;;9.27;2.60;;;;;;;26.79;56.26;98602.66;5113046;27;20195;-70
2022/04/25 10:50:02;;;;;;;29.00;14.30;;;;;;;26.96;53.27;98612.19;5112992;28;20624;-70
2022/04/25 10:53:01;;;;;;;4.97;3.70;;;;;;;27.01;56.00;98609.84;5111817;28;20206;-69
2022/04/25 10:55:38;;;;;;;3.30;3.00;;;;;;;27.16;51.72;98614.41;5114032;27;20202;-69
2022/04/25 10:58:18;;;;;;;7.93;2.70;;;;;;;27.20;50.45;98602.56;5111308;27;20212;-69
2022/04/25 11:00:53;;;;;;;4.67;3.27;;;;;;;27.34;51.58;98601.84;5116380;27;20651;-69
2022/04/25 11:03:23;;;;;;;5.47;4.47;;;;;;;27.21;52.27;98598.94;5108953;28;20204;-70
2022/04/25 11:05:52;;;;;;;11.20;5.17;;;;;;;27.19;50.71;98595.66;5110998;27;20236;-69
2022/04/25 11:08:24;;;;;;;2.93;2.53;;;;;;;27.40;51.09;98596.69;5109951;28;20198;-70
2022/04/25 11:10:59;;;;;;;5.93;2.60;;;;;;;27.58;49.54;98589.41;5109697;28;20207;-70
2022/04/25 11:13:28;;;;;;;8.87;3.90;;;;;;;27.50;51.22;98596.53;5111258;27;20257;-70
2022/04/25 11:15:56;;;;;;;5.33;3.17;;;;;;;27.54;50.50;98596.00;5113857;27;20274;-70
2022/04/25 11:18:30;;;;;;;5.40;3.33;;;;;;;27.54;50.79;98593.38;5113019;27;20194;-70
2022/04/25 11:20:59;;;;;;;5.07;2.67;;;;;;;27.70;50.86;98600.38;5113504;27;20289;-69
2022/04/25 11:23:29;;;;;;;4.77;3.00;;;;;;;27.75;49.14;98587.50;5110723;27;20279;-69
2022/04/25 11:25:56;;;;;;;4.20;3.30;;;;;;;27.46;48.19;98592.63;5111676;27;20202;-70
2022/04/25 11:28:24;;;;;;;6.93;3.80;;;;;;;27.18;49.35;98583.47;5111614;27;20194;-69
2022/04/25 11:31:23;;;;;;;8.60;3.00;;;;;;;27.29;49.57;98578.69;5114666;27;20209;-69
2022/04/25 11:33:51;;;;;;;6.83;3.63;;;;;;;27.09;51.42;98575.63;5111730;28;20214;-69
2022/04/25 11:36:21;;;;;;;4.77;3.57;;;;;;;27.19;50.56;98579.88;5111246;27;20554;-69
2022/04/25 11:41:36;;;;;;;5.30;3.27;;;;;;;27.07;50.73;98579.44;5110378;27;20294;-70
2022/04/25 11:44:04;;;;;;;3.60;3.30;;;;;;;26.93;49.23;98583.59;5113349;27;20679;-69
2022/04/25 11:46:33;;;;;;;9.73;3.50;;;;;;;26.81;50.63;98582.31;5110888;28;20308;-69
2022/04/25 11:49:00;;;;;;;7.10;3.30;;;;;;;26.69;49.47;98577.56;5110427;27;20203;-69
2022/04/25 11:51:30;;;;;;;7.57;3.53;;;;;;;26.57;52.13;98569.19;5097822;28;20289;-69
2022/04/25 11:53:58;;;;;;;7.37;3.80;;;;;;;26.71;50.39;98571.13;5112542;27;20309;-69
2022/04/25 11:56:26;;;;;;;5.30;3.13;;;;;;;26.87;49.34;98571.13;5112199;27;20281;-69
2022/04/25 11:58:54;;;;;;;8.30;3.50;;;;;;;26.94;49.82;98572.09;5111212;28;20201;-70
2022/04/25 12:01:35;;;;;;;4.90;3.20;;;;;;;27.03;49.50;98568.44;5113204;27;20201;-69
2022/04/25 12:04:15;;;;;;;4.10;2.47;;;;;;;27.11;48.72;98567.56;5112116;27;20202;-70
2022/04/25 12:06:52;;;;;;;3.17;2.87;;;;;;;27.20;48.85;98555.19;5111448;27;20202;-64
2022/04/25 12:17:39;;;;;;;8.20;3.00;;;;;;;27.13;48.87;98549.81;5111962;27;20261;-65
2022/04/25 12:20:09;;;;;;;2.40;2.20;;;;;;;27.19;47.75;98548.28;5110509;28;20207;-65